sensor_id;sensor_type;location;lat;lon;timestamp;temperature;humidity
37844;DHT22;63793;57.632;18.292;2023-04-24T00:01:14;8.90;99.90
37844;DHT22;63793;57.632;18.292;2023-04-24T00:03:41;8.90;99.90
37844;DHT22;63793;57.632;18.292;2023-04-24T00:06:08;8.90;99.90
37844;DHT22;63793;57.632;18.292;2023-04-24T00:08:35;9.00;99.90
37844;DHT22;63793;57.632;18.292;2023-04-24T00:11:03;9.00;99.90
37844;DHT22;63793;57.632;18.292;2023-04-24T00:13:30;9.00;99.90
37844;DHT22;63793;57.632;18.292;2023-04-24T00:15:57;9.00;99.90
37844;DHT22;63793;57.632;18.292;2023-04-24T00:18:23;9.00;99.90
37844;DHT22;63793;57.632;18.292;2023-04-24T00:20:50;9.00;99.90
37844;DHT22;63793;57.632;18.292;2023-04-24T00:23:17;8.90;99.90
37844;DHT22;63793;57.632;18.292;2023-04-24T00:25:44;8.80;99.90
37844;DHT22;63793;57.632;18.292;2023-04-24T00:28:11;8.70;99.90
37844;DHT22;63793;57.632;18.292;2023-04-24T00:30:38;8.60;99.90
37844;DHT22;63793;57.632;18.292;2023-04-24T00:33:05;8.50;99.90
37844;DHT22;63793;57.632;18.292;2023-04-24T00:35:32;8.30;99.90
37844;DHT22;63793;57.632;18.292;2023-04-24T00:37:58;8.30;99.90
37844;DHT22;63793;57.632;18.292;2023-04-24T00:40:26;8.30;99.90
37844;DHT22;63793;57.632;18.292;2023-04-24T00:42:53;8.30;99.90
37844;DHT22;63793;57.632;18.292;2023-04-24T00:45:20;8.20;99.90
37844;DHT22;63793;57.632;18.292;2023-04-24T00:47:48;8.20;99.90
37844;DHT22;63793;57.632;18.292;2023-04-24T00:50:15;8.10;99.90
37844;DHT22;63793;57.632;18.292;2023-04-24T00:52:42;8.10;99.90
37844;DHT22;63793;57.632;18.292;2023-04-24T00:55:09;8.10;99.90
37844;DHT22;63793;57.632;18.292;2023-04-24T00:57:37;8.10;99.90
37844;DHT22;63793;57.632;18.292;2023-04-24T01:00:05;8.00;99.90
37844;DHT22;63793;57.632;18.292;2023-04-24T01:02:34;8.00;99.90
37844;DHT22;63793;57.632;18.292;2023-04-24T01:05:01;8.00;99.90
37844;DHT22;63793;57.632;18.292;2023-04-24T01:07:28;7.90;99.90
37844;DHT22;63793;57.632;18.292;2023-04-24T01:09:55;7.90;99.90
37844;DHT22;63793;57.632;18.292;2023-04-24T01:12:24;7.90;99.90
37844;DHT22;63793;57.632;18.292;2023-04-24T01:14:51;7.80;99.90
37844;DHT22;63793;57.632;18.292;2023-04-24T01:17:18;7.80;99.90
37844;DHT22;63793;57.632;18.292;2023-04-24T01:19:46;7.80;99.90
37844;DHT22;63793;57.632;18.292;2023-04-24T01:22:14;7.80;99.90
37844;DHT22;63793;57.632;18.292;2023-04-24T01:24:42;7.80;99.90
37844;DHT22;63793;57.632;18.292;2023-04-24T01:27:11;7.80;99.90
37844;DHT22;63793;57.632;18.292;2023-04-24T01:29:39;7.70;99.90
37844;DHT22;63793;57.632;18.292;2023-04-24T01:32:09;7.70;99.90
37844;DHT22;63793;57.632;18.292;2023-04-24T01:34:37;7.60;99.90
37844;DHT22;63793;57.632;18.292;2023-04-24T01:37:03;7.60;99.90
37844;DHT22;63793;57.632;18.292;2023-04-24T01:39:32;7.60;99.90
37844;DHT22;63793;57.632;18.292;2023-04-24T01:42:00;7.50;99.90
37844;DHT22;63793;57.632;18.292;2023-04-24T01:44:29;7.50;99.90
37844;DHT22;63793;57.632;18.292;2023-04-24T01:46:56;7.40;99.90
37844;DHT22;63793;57.632;18.292;2023-04-24T01:49:23;7.50;99.90
37844;DHT22;63793;57.632;18.292;2023-04-24T01:51:50;7.40;99.90
37844;DHT22;63793;57.632;18.292;2023-04-24T01:54:17;7.40;99.90
37844;DHT22;63793;57.632;18.292;2023-04-24T01:56:44;7.40;99.90
37844;DHT22;63793;57.632;18.292;2023-04-24T01:59:12;7.40;99.90
37844;DHT22;63793;57.632;18.292;2023-04-24T02:01:39;7.40;99.90
37844;DHT22;63793;57.632;18.292;2023-04-24T02:04:06;7.40;99.90
37844;DHT22;63793;57.632;18.292;2023-04-24T02:06:35;7.40;99.90
37844;DHT22;63793;57.632;18.292;2023-04-24T02:09:02;7.40;99.90
37844;DHT22;63793;57.632;18.292;2023-04-24T02:11:30;7.40;99.90
37844;DHT22;63793;57.632;18.292;2023-04-24T02:13:57;7.40;99.90
37844;DHT22;63793;57.632;18.292;2023-04-24T02:16:24;7.40;99.90
37844;DHT22;63793;57.632;18.292;2023-04-24T02:18:51;7.40;99.90
37844;DHT22;63793;57.632;18.292;2023-04-24T02:21:18;7.40;99.90
37844;DHT22;63793;57.632;18.292;2023-04-24T02:23:45;7.40;99.90
37844;DHT22;63793;57.632;18.292;2023-04-24T02:26:12;7.40;99.90
37844;DHT22;63793;57.632;18.292;2023-04-24T02:28:39;7.40;99.90
37844;DHT22;63793;57.632;18.292;2023-04-24T02:31:06;7.40;99.90
37844;DHT22;63793;57.632;18.292;2023-04-24T02:33:33;7.40;99.90
37844;DHT22;63793;57.632;18.292;2023-04-24T02:36:01;7.50;99.90
37844;DHT22;63793;57.632;18.292;2023-04-24T02:38:28;7.50;99.90
37844;DHT22;63793;57.632;18.292;2023-04-24T02:40:55;7.50;99.90
37844;DHT22;63793;57.632;18.292;2023-04-24T02:43:22;7.50;99.90
37844;DHT22;63793;57.632;18.292;2023-04-24T02:45:50;7.50;99.90
37844;DHT22;63793;57.632;18.292;2023-04-24T02:48:17;7.60;99.90
37844;DHT22;63793;57.632;18.292;2023-04-24T02:50:44;7.60;99.90
37844;DHT22;63793;57.632;18.292;2023-04-24T02:53:11;7.60;99.90
37844;DHT22;63793;57.632;18.292;2023-04-24T02:55:37;7.60;99.90
37844;DHT22;63793;57.632;18.292;2023-04-24T02:58:04;7.60;99.90
37844;DHT22;63793;57.632;18.292;2023-04-24T03:00:32;7.60;99.90
37844;DHT22;63793;57.632;18.292;2023-04-24T03:02:59;7.60;99.90
37844;DHT22;63793;57.632;18.292;2023-04-24T03:05:27;7.70;99.90
37844;DHT22;63793;57.632;18.292;2023-04-24T03:07:53;7.70;99.90
37844;DHT22;63793;57.632;18.292;2023-04-24T03:10:21;7.70;99.90
37844;DHT22;63793;57.632;18.292;2023-04-24T03:12:49;7.70;99.90
37844;DHT22;63793;57.632;18.292;2023-04-24T03:15:18;7.70;99.90
37844;DHT22;63793;57.632;18.292;2023-04-24T03:17:44;7.70;99.90
37844;DHT22;63793;57.632;18.292;2023-04-24T03:20:12;7.70;99.90
37844;DHT22;63793;57.632;18.292;2023-04-24T03:22:39;7.70;99.90
37844;DHT22;63793;57.632;18.292;2023-04-24T03:25:07;7.70;99.90
37844;DHT22;63793;57.632;18.292;2023-04-24T03:27:37;7.70;99.90
37844;DHT22;63793;57.632;18.292;2023-04-24T03:30:18;7.70;99.90
37844;DHT22;63793;57.632;18.292;2023-04-24T03:32:51;7.70;99.90
37844;DHT22;63793;57.632;18.292;2023-04-24T03:35:23;7.70;99.90
37844;DHT22;63793;57.632;18.292;2023-04-24T03:37:51;7.70;99.90
37844;DHT22;63793;57.632;18.292;2023-04-24T03:40:46;7.70;99.90
37844;DHT22;63793;57.632;18.292;2023-04-24T03:43:26;7.70;99.90
37844;DHT22;63793;57.632;18.292;2023-04-24T03:45:56;7.70;99.90
37844;DHT22;63793;57.632;18.292;2023-04-24T03:48:23;7.60;99.90
37844;DHT22;63793;57.632;18.292;2023-04-24T03:50:51;7.60;99.90
37844;DHT22;63793;57.632;18.292;2023-04-24T03:53:18;7.60;99.90
37844;DHT22;63793;57.632;18.292;2023-04-24T03:55:46;7.50;99.90
37844;DHT22;63793;57.632;18.292;2023-04-24T03:58:13;7.50;99.90
37844;DHT22;63793;57.632;18.292;2023-04-24T04:00:41;7.50;99.90
37844;DHT22;63793;57.632;18.292;2023-04-24T04:03:30;7.50;99.90
37844;DHT22;63793;57.632;18.292;2023-04-24T04:05:58;7.50;99.90
37844;DHT22;63793;57.632;18.292;2023-04-24T04:08:25;7.50;99.90
37844;DHT22;63793;57.632;18.292;2023-04-24T04:10:52;7.40;99.90
37844;DHT22;63793;57.632;18.292;2023-04-24T04:13:19;7.50;99.90
37844;DHT22;63793;57.632;18.292;2023-04-24T04:15:46;7.40;99.90
37844;DHT22;63793;57.632;18.292;2023-04-24T04:18:13;7.50;99.90
37844;DHT22;63793;57.632;18.292;2023-04-24T04:20:40;7.50;99.90
37844;DHT22;63793;57.632;18.292;2023-04-24T04:23:08;7.50;99.90
37844;DHT22;63793;57.632;18.292;2023-04-24T04:25:48;7.50;99.90
37844;DHT22;63793;57.632;18.292;2023-04-24T04:28:20;7.60;99.90
37844;DHT22;63793;57.632;18.292;2023-04-24T04:30:48;7.60;99.90
37844;DHT22;63793;57.632;18.292;2023-04-24T04:33:16;7.60;99.90
37844;DHT22;63793;57.632;18.292;2023-04-24T04:35:43;7.60;99.90
37844;DHT22;63793;57.632;18.292;2023-04-24T04:38:11;7.60;99.90
37844;DHT22;63793;57.632;18.292;2023-04-24T04:40:43;7.60;99.90
37844;DHT22;63793;57.632;18.292;2023-04-24T04:43:11;7.70;99.90
37844;DHT22;63793;57.632;18.292;2023-04-24T04:45:45;7.70;99.90
37844;DHT22;63793;57.632;18.292;2023-04-24T04:48:27;7.70;99.90
37844;DHT22;63793;57.632;18.292;2023-04-24T04:50:57;7.70;99.90
37844;DHT22;63793;57.632;18.292;2023-04-24T04:53:25;7.70;99.90
37844;DHT22;63793;57.632;18.292;2023-04-24T04:55:52;7.70;99.90
37844;DHT22;63793;57.632;18.292;2023-04-24T04:58:23;7.70;99.90
37844;DHT22;63793;57.632;18.292;2023-04-24T05:00:55;7.70;99.90
37844;DHT22;63793;57.632;18.292;2023-04-24T05:03:32;7.70;99.90
37844;DHT22;63793;57.632;18.292;2023-04-24T05:06:04;7.70;99.90
37844;DHT22;63793;57.632;18.292;2023-04-24T05:08:34;7.70;99.90
37844;DHT22;63793;57.632;18.292;2023-04-24T05:11:02;7.70;99.90
37844;DHT22;63793;57.632;18.292;2023-04-24T05:13:30;7.70;99.90
37844;DHT22;63793;57.632;18.292;2023-04-24T05:16:14;7.70;99.90
37844;DHT22;63793;57.632;18.292;2023-04-24T05:18:41;7.70;99.90
37844;DHT22;63793;57.632;18.292;2023-04-24T05:21:11;7.80;99.90
37844;DHT22;63793;57.632;18.292;2023-04-24T05:23:40;7.80;99.90
37844;DHT22;63793;57.632;18.292;2023-04-24T05:26:07;7.80;99.90
37844;DHT22;63793;57.632;18.292;2023-04-24T05:28:34;7.90;99.90
37844;DHT22;63793;57.632;18.292;2023-04-24T05:31:07;7.90;99.90
37844;DHT22;63793;57.632;18.292;2023-04-24T05:33:34;8.00;99.90
37844;DHT22;63793;57.632;18.292;2023-04-24T05:36:01;8.00;99.90
37844;DHT22;63793;57.632;18.292;2023-04-24T05:38:28;8.10;99.90
37844;DHT22;63793;57.632;18.292;2023-04-24T05:40:55;8.10;99.90
37844;DHT22;63793;57.632;18.292;2023-04-24T05:43:22;8.10;99.90
37844;DHT22;63793;57.632;18.292;2023-04-24T05:45:49;8.10;99.90
37844;DHT22;63793;57.632;18.292;2023-04-24T05:48:17;8.20;99.90
37844;DHT22;63793;57.632;18.292;2023-04-24T05:50:44;8.30;99.90
37844;DHT22;63793;57.632;18.292;2023-04-24T05:53:11;8.30;99.90
37844;DHT22;63793;57.632;18.292;2023-04-24T05:55:38;8.40;99.90
37844;DHT22;63793;57.632;18.292;2023-04-24T05:58:05;8.40;99.90
37844;DHT22;63793;57.632;18.292;2023-04-24T06:00:34;8.40;99.90
37844;DHT22;63793;57.632;18.292;2023-04-24T06:03:06;8.40;99.90
37844;DHT22;63793;57.632;18.292;2023-04-24T06:05:34;8.40;99.90
37844;DHT22;63793;57.632;18.292;2023-04-24T06:08:02;8.50;99.90
37844;DHT22;63793;57.632;18.292;2023-04-24T06:10:33;8.50;99.90
37844;DHT22;63793;57.632;18.292;2023-04-24T06:13:00;8.50;99.90
37844;DHT22;63793;57.632;18.292;2023-04-24T06:15:29;8.60;99.90
37844;DHT22;63793;57.632;18.292;2023-04-24T06:18:17;8.60;99.90
37844;DHT22;63793;57.632;18.292;2023-04-24T06:20:45;8.60;99.90
37844;DHT22;63793;57.632;18.292;2023-04-24T06:23:12;8.60;99.90
37844;DHT22;63793;57.632;18.292;2023-04-24T06:25:39;8.70;99.90
37844;DHT22;63793;57.632;18.292;2023-04-24T06:28:06;8.80;99.90
37844;DHT22;63793;57.632;18.292;2023-04-24T06:30:33;8.90;99.90
37844;DHT22;63793;57.632;18.292;2023-04-24T06:33:00;9.00;99.90
37844;DHT22;63793;57.632;18.292;2023-04-24T06:35:44;8.90;99.90
37844;DHT22;63793;57.632;18.292;2023-04-24T06:38:11;8.90;99.90
37844;DHT22;63793;57.632;18.292;2023-04-24T06:40:38;9.00;99.90
37844;DHT22;63793;57.632;18.292;2023-04-24T06:43:05;9.00;99.90
37844;DHT22;63793;57.632;18.292;2023-04-24T06:45:32;9.10;99.90
37844;DHT22;63793;57.632;18.292;2023-04-24T06:47:59;9.10;99.90
37844;DHT22;63793;57.632;18.292;2023-04-24T06:50:26;9.10;99.90
37844;DHT22;63793;57.632;18.292;2023-04-24T06:52:53;9.10;99.90
37844;DHT22;63793;57.632;18.292;2023-04-24T06:55:20;9.20;99.90
37844;DHT22;63793;57.632;18.292;2023-04-24T06:57:47;9.10;99.90
37844;DHT22;63793;57.632;18.292;2023-04-24T07:00:14;9.20;99.90
37844;DHT22;63793;57.632;18.292;2023-04-24T07:02:41;9.40;99.90
37844;DHT22;63793;57.632;18.292;2023-04-24T07:05:08;9.40;99.90
37844;DHT22;63793;57.632;18.292;2023-04-24T07:07:35;9.50;99.90
37844;DHT22;63793;57.632;18.292;2023-04-24T07:10:05;9.40;99.90
37844;DHT22;63793;57.632;18.292;2023-04-24T07:12:32;9.40;99.90
37844;DHT22;63793;57.632;18.292;2023-04-24T07:15:00;9.30;99.90
37844;DHT22;63793;57.632;18.292;2023-04-24T07:17:27;9.40;99.90
37844;DHT22;63793;57.632;18.292;2023-04-24T07:19:54;9.40;99.90
37844;DHT22;63793;57.632;18.292;2023-04-24T07:22:21;9.40;99.90
37844;DHT22;63793;57.632;18.292;2023-04-24T07:24:48;9.50;99.90
37844;DHT22;63793;57.632;18.292;2023-04-24T07:27:15;9.50;99.90
37844;DHT22;63793;57.632;18.292;2023-04-24T07:29:42;9.60;99.90
37844;DHT22;63793;57.632;18.292;2023-04-24T07:32:10;9.60;99.90
37844;DHT22;63793;57.632;18.292;2023-04-24T07:34:37;9.70;99.90
37844;DHT22;63793;57.632;18.292;2023-04-24T07:37:04;9.80;99.90
37844;DHT22;63793;57.632;18.292;2023-04-24T07:39:31;10.00;99.90
37844;DHT22;63793;57.632;18.292;2023-04-24T07:41:58;10.10;99.90
37844;DHT22;63793;57.632;18.292;2023-04-24T07:44:26;10.00;99.90
37844;DHT22;63793;57.632;18.292;2023-04-24T07:46:53;10.00;99.90
37844;DHT22;63793;57.632;18.292;2023-04-24T07:49:20;10.00;99.90
37844;DHT22;63793;57.632;18.292;2023-04-24T07:51:47;10.00;99.90
37844;DHT22;63793;57.632;18.292;2023-04-24T07:54:14;10.30;99.90
37844;DHT22;63793;57.632;18.292;2023-04-24T07:56:41;10.20;99.90
37844;DHT22;63793;57.632;18.292;2023-04-24T07:59:10;10.20;99.90
37844;DHT22;63793;57.632;18.292;2023-04-24T08:01:37;10.00;99.90
37844;DHT22;63793;57.632;18.292;2023-04-24T08:04:04;10.00;99.90
37844;DHT22;63793;57.632;18.292;2023-04-24T08:06:32;9.80;99.90
37844;DHT22;63793;57.632;18.292;2023-04-24T08:08:59;9.70;99.90
37844;DHT22;63793;57.632;18.292;2023-04-24T08:11:27;9.50;99.90
37844;DHT22;63793;57.632;18.292;2023-04-24T08:13:54;9.50;99.90
37844;DHT22;63793;57.632;18.292;2023-04-24T08:16:22;9.60;99.90
37844;DHT22;63793;57.632;18.292;2023-04-24T08:18:51;9.60;99.90
37844;DHT22;63793;57.632;18.292;2023-04-24T08:21:18;9.60;99.90
37844;DHT22;63793;57.632;18.292;2023-04-24T08:23:46;9.70;99.90
37844;DHT22;63793;57.632;18.292;2023-04-24T08:26:13;9.60;99.90
37844;DHT22;63793;57.632;18.292;2023-04-24T08:28:40;9.60;99.90
37844;DHT22;63793;57.632;18.292;2023-04-24T08:31:07;9.50;99.90
37844;DHT22;63793;57.632;18.292;2023-04-24T08:33:34;9.50;99.90
37844;DHT22;63793;57.632;18.292;2023-04-24T08:36:05;9.50;99.90
37844;DHT22;63793;57.632;18.292;2023-04-24T08:38:33;9.50;99.90
37844;DHT22;63793;57.632;18.292;2023-04-24T08:41:01;9.60;99.90
37844;DHT22;63793;57.632;18.292;2023-04-24T08:43:28;9.80;99.90
37844;DHT22;63793;57.632;18.292;2023-04-24T08:45:56;10.00;99.90
37844;DHT22;63793;57.632;18.292;2023-04-24T08:48:24;10.10;99.90
37844;DHT22;63793;57.632;18.292;2023-04-24T08:50:58;10.10;99.90
37844;DHT22;63793;57.632;18.292;2023-04-24T08:53:26;10.10;99.90
37844;DHT22;63793;57.632;18.292;2023-04-24T08:55:55;10.10;99.90
37844;DHT22;63793;57.632;18.292;2023-04-24T08:58:25;10.20;99.90
37844;DHT22;63793;57.632;18.292;2023-04-24T09:00:57;10.20;99.90
37844;DHT22;63793;57.632;18.292;2023-04-24T09:03:24;10.00;99.90
37844;DHT22;63793;57.632;18.292;2023-04-24T09:05:55;10.00;99.90
37844;DHT22;63793;57.632;18.292;2023-04-24T09:08:24;10.10;99.90
37844;DHT22;63793;57.632;18.292;2023-04-24T09:10:52;10.00;99.90
37844;DHT22;63793;57.632;18.292;2023-04-24T09:13:20;9.90;99.90
37844;DHT22;63793;57.632;18.292;2023-04-24T09:15:47;9.80;99.90
37844;DHT22;63793;57.632;18.292;2023-04-24T09:18:14;9.80;99.90
37844;DHT22;63793;57.632;18.292;2023-04-24T09:23:30;9.90;99.90
37844;DHT22;63793;57.632;18.292;2023-04-24T09:25:58;10.00;99.90
37844;DHT22;63793;57.632;18.292;2023-04-24T09:28:30;10.00;99.90
37844;DHT22;63793;57.632;18.292;2023-04-24T09:33:31;10.10;99.90
37844;DHT22;63793;57.632;18.292;2023-04-24T09:35:58;10.10;99.90
37844;DHT22;63793;57.632;18.292;2023-04-24T09:38:36;10.10;99.90
37844;DHT22;63793;57.632;18.292;2023-04-24T09:41:07;10.10;99.90
37844;DHT22;63793;57.632;18.292;2023-04-24T09:43:35;10.10;99.90
37844;DHT22;63793;57.632;18.292;2023-04-24T09:46:07;10.00;99.90
37844;DHT22;63793;57.632;18.292;2023-04-24T09:48:36;10.10;99.90
37844;DHT22;63793;57.632;18.292;2023-04-24T09:51:05;10.30;99.90
37844;DHT22;63793;57.632;18.292;2023-04-24T09:53:37;10.40;99.90
37844;DHT22;63793;57.632;18.292;2023-04-24T09:56:10;10.50;99.90
37844;DHT22;63793;57.632;18.292;2023-04-24T09:58:39;10.50;99.90
37844;DHT22;63793;57.632;18.292;2023-04-24T10:01:06;10.30;99.90
37844;DHT22;63793;57.632;18.292;2023-04-24T10:03:33;10.30;99.90
37844;DHT22;63793;57.632;18.292;2023-04-24T10:06:04;10.30;99.90
37844;DHT22;63793;57.632;18.292;2023-04-24T10:08:37;10.20;99.90
37844;DHT22;63793;57.632;18.292;2023-04-24T10:11:04;10.30;99.90
37844;DHT22;63793;57.632;18.292;2023-04-24T10:13:32;10.30;99.90
37844;DHT22;63793;57.632;18.292;2023-04-24T10:16:00;10.40;99.90
37844;DHT22;63793;57.632;18.292;2023-04-24T10:18:28;10.40;99.90
37844;DHT22;63793;57.632;18.292;2023-04-24T10:20:56;10.50;99.90
37844;DHT22;63793;57.632;18.292;2023-04-24T10:23:25;10.50;99.90
37844;DHT22;63793;57.632;18.292;2023-04-24T10:25:52;10.70;99.90
37844;DHT22;63793;57.632;18.292;2023-04-24T10:28:20;10.60;99.90
37844;DHT22;63793;57.632;18.292;2023-04-24T10:30:48;10.60;99.90
37844;DHT22;63793;57.632;18.292;2023-04-24T10:33:17;10.70;99.90
37844;DHT22;63793;57.632;18.292;2023-04-24T10:35:46;10.60;99.90
37844;DHT22;63793;57.632;18.292;2023-04-24T10:38:25;10.40;99.90
37844;DHT22;63793;57.632;18.292;2023-04-24T10:41:10;10.30;99.90
37844;DHT22;63793;57.632;18.292;2023-04-24T10:43:42;10.40;99.90
37844;DHT22;63793;57.632;18.292;2023-04-24T10:46:10;10.50;99.90
37844;DHT22;63793;57.632;18.292;2023-04-24T10:48:42;10.60;99.90
37844;DHT22;63793;57.632;18.292;2023-04-24T10:51:12;10.70;99.90
37844;DHT22;63793;57.632;18.292;2023-04-24T10:53:40;10.80;99.90
37844;DHT22;63793;57.632;18.292;2023-04-24T10:56:08;10.90;99.90
37844;DHT22;63793;57.632;18.292;2023-04-24T10:58:42;11.00;99.90
37844;DHT22;63793;57.632;18.292;2023-04-24T11:01:26;11.00;99.90
37844;DHT22;63793;57.632;18.292;2023-04-24T11:04:01;11.00;99.90
37844;DHT22;63793;57.632;18.292;2023-04-24T11:06:37;11.00;99.90
37844;DHT22;63793;57.632;18.292;2023-04-24T11:09:05;10.30;99.90
37844;DHT22;63793;57.632;18.292;2023-04-24T11:11:33;10.10;99.90
37844;DHT22;63793;57.632;18.292;2023-04-24T11:14:02;9.80;99.90
37844;DHT22;63793;57.632;18.292;2023-04-24T11:16:44;9.70;99.90
37844;DHT22;63793;57.632;18.292;2023-04-24T11:21:49;9.80;99.90
37844;DHT22;63793;57.632;18.292;2023-04-24T11:26:58;10.00;99.90
37844;DHT22;63793;57.632;18.292;2023-04-24T11:34:51;10.40;99.90
37844;DHT22;63793;57.632;18.292;2023-04-24T11:37:19;10.50;99.90
37844;DHT22;63793;57.632;18.292;2023-04-24T11:39:46;10.60;99.90
37844;DHT22;63793;57.632;18.292;2023-04-24T11:42:15;10.70;99.90
37844;DHT22;63793;57.632;18.292;2023-04-24T11:44:42;10.70;99.90
37844;DHT22;63793;57.632;18.292;2023-04-24T11:47:09;10.90;99.90
37844;DHT22;63793;57.632;18.292;2023-04-24T11:49:37;11.20;99.90
37844;DHT22;63793;57.632;18.292;2023-04-24T11:52:04;11.10;99.90
37844;DHT22;63793;57.632;18.292;2023-04-24T11:54:31;11.30;99.90
37844;DHT22;63793;57.632;18.292;2023-04-24T11:56:58;11.50;99.90
37844;DHT22;63793;57.632;18.292;2023-04-24T11:59:26;11.70;99.90
37844;DHT22;63793;57.632;18.292;2023-04-24T12:01:53;11.80;99.90
37844;DHT22;63793;57.632;18.292;2023-04-24T12:04:20;11.90;99.90
37844;DHT22;63793;57.632;18.292;2023-04-24T12:07:03;11.80;99.90
37844;DHT22;63793;57.632;18.292;2023-04-24T12:09:47;11.60;99.90
37844;DHT22;63793;57.632;18.292;2023-04-24T12:12:17;11.80;99.90
37844;DHT22;63793;57.632;18.292;2023-04-24T12:14:49;12.10;99.90
37844;DHT22;63793;57.632;18.292;2023-04-24T12:17:16;12.70;99.90
37844;DHT22;63793;57.632;18.292;2023-04-24T12:19:48;13.30;99.90
37844;DHT22;63793;57.632;18.292;2023-04-24T12:22:15;13.70;99.90
37844;DHT22;63793;57.632;18.292;2023-04-24T12:25:01;13.80;99.90
37844;DHT22;63793;57.632;18.292;2023-04-24T12:27:31;13.90;99.90
37844;DHT22;63793;57.632;18.292;2023-04-24T12:29:59;13.90;99.90
37844;DHT22;63793;57.632;18.292;2023-04-24T12:32:27;13.80;99.90
37844;DHT22;63793;57.632;18.292;2023-04-24T12:34:54;13.80;99.90
37844;DHT22;63793;57.632;18.292;2023-04-24T12:37:25;13.80;99.90
37844;DHT22;63793;57.632;18.292;2023-04-24T12:40:03;13.90;99.90
37844;DHT22;63793;57.632;18.292;2023-04-24T12:42:31;14.00;99.90
37844;DHT22;63793;57.632;18.292;2023-04-24T12:45:04;14.00;99.90
37844;DHT22;63793;57.632;18.292;2023-04-24T12:47:32;14.00;99.90
37844;DHT22;63793;57.632;18.292;2023-04-24T12:50:00;14.10;99.90
37844;DHT22;63793;57.632;18.292;2023-04-24T12:52:29;14.20;99.90
37844;DHT22;63793;57.632;18.292;2023-04-24T12:54:58;14.20;99.90
37844;DHT22;63793;57.632;18.292;2023-04-24T12:57:28;14.20;99.90
37844;DHT22;63793;57.632;18.292;2023-04-24T12:59:58;14.20;99.90
37844;DHT22;63793;57.632;18.292;2023-04-24T13:02:26;13.20;99.90
37844;DHT22;63793;57.632;18.292;2023-04-24T13:04:53;12.80;99.90
37844;DHT22;63793;57.632;18.292;2023-04-24T13:07:21;12.30;99.90
37844;DHT22;63793;57.632;18.292;2023-04-24T13:09:49;12.20;99.90
37844;DHT22;63793;57.632;18.292;2023-04-24T13:12:17;12.40;99.90
37844;DHT22;63793;57.632;18.292;2023-04-24T13:14:44;12.70;99.90
37844;DHT22;63793;57.632;18.292;2023-04-24T13:17:12;12.70;99.90
37844;DHT22;63793;57.632;18.292;2023-04-24T13:19:42;12.90;99.90
37844;DHT22;63793;57.632;18.292;2023-04-24T13:22:10;13.10;99.90
37844;DHT22;63793;57.632;18.292;2023-04-24T13:24:38;13.50;99.90
37844;DHT22;63793;57.632;18.292;2023-04-24T13:27:08;13.80;99.90
37844;DHT22;63793;57.632;18.292;2023-04-24T13:29:36;14.20;99.90
37844;DHT22;63793;57.632;18.292;2023-04-24T13:32:03;14.50;99.90
37844;DHT22;63793;57.632;18.292;2023-04-24T13:34:30;14.30;99.90
37844;DHT22;63793;57.632;18.292;2023-04-24T13:36:58;14.20;99.90
37844;DHT22;63793;57.632;18.292;2023-04-24T13:39:26;13.90;99.90
37844;DHT22;63793;57.632;18.292;2023-04-24T13:41:53;13.70;99.90
37844;DHT22;63793;57.632;18.292;2023-04-24T13:44:21;13.70;99.90
37844;DHT22;63793;57.632;18.292;2023-04-24T13:46:50;13.50;99.90
37844;DHT22;63793;57.632;18.292;2023-04-24T13:49:18;13.70;99.90
37844;DHT22;63793;57.632;18.292;2023-04-24T13:51:45;14.00;99.90
37844;DHT22;63793;57.632;18.292;2023-04-24T13:54:13;14.10;99.90
37844;DHT22;63793;57.632;18.292;2023-04-24T13:56:40;14.30;99.90
37844;DHT22;63793;57.632;18.292;2023-04-24T13:59:07;14.20;99.90
37844;DHT22;63793;57.632;18.292;2023-04-24T14:01:35;13.80;99.90
37844;DHT22;63793;57.632;18.292;2023-04-24T14:04:02;13.60;99.90
37844;DHT22;63793;57.632;18.292;2023-04-24T14:06:29;13.50;99.90
37844;DHT22;63793;57.632;18.292;2023-04-24T14:08:56;13.40;99.90
37844;DHT22;63793;57.632;18.292;2023-04-24T14:11:23;13.30;99.90
37844;DHT22;63793;57.632;18.292;2023-04-24T14:13:50;13.40;99.90
37844;DHT22;63793;57.632;18.292;2023-04-24T14:16:17;13.40;99.90
37844;DHT22;63793;57.632;18.292;2023-04-24T14:18:44;13.20;99.90
37844;DHT22;63793;57.632;18.292;2023-04-24T14:21:11;13.30;99.90
37844;DHT22;63793;57.632;18.292;2023-04-24T14:23:38;13.40;99.90
37844;DHT22;63793;57.632;18.292;2023-04-24T14:26:05;13.40;99.90
37844;DHT22;63793;57.632;18.292;2023-04-24T14:28:32;13.30;99.90
37844;DHT22;63793;57.632;18.292;2023-04-24T14:30:59;13.40;99.90
37844;DHT22;63793;57.632;18.292;2023-04-24T14:33:26;13.30;99.90
37844;DHT22;63793;57.632;18.292;2023-04-24T14:35:53;13.20;99.90
37844;DHT22;63793;57.632;18.292;2023-04-24T14:38:21;13.20;99.90
37844;DHT22;63793;57.632;18.292;2023-04-24T14:40:48;13.20;99.90
37844;DHT22;63793;57.632;18.292;2023-04-24T14:43:32;13.50;99.90
37844;DHT22;63793;57.632;18.292;2023-04-24T14:45:59;13.70;99.90
37844;DHT22;63793;57.632;18.292;2023-04-24T14:48:26;14.20;99.90
37844;DHT22;63793;57.632;18.292;2023-04-24T14:50:53;14.50;99.90
37844;DHT22;63793;57.632;18.292;2023-04-24T14:53:20;14.60;99.90
37844;DHT22;63793;57.632;18.292;2023-04-24T14:55:47;14.50;99.90
37844;DHT22;63793;57.632;18.292;2023-04-24T14:58:14;14.50;99.90
37844;DHT22;63793;57.632;18.292;2023-04-24T15:00:41;14.40;99.90
37844;DHT22;63793;57.632;18.292;2023-04-24T15:03:08;14.60;99.90
37844;DHT22;63793;57.632;18.292;2023-04-24T15:05:36;14.60;99.90
37844;DHT22;63793;57.632;18.292;2023-04-24T15:08:03;14.40;99.90
37844;DHT22;63793;57.632;18.292;2023-04-24T15:10:30;13.80;99.90
37844;DHT22;63793;57.632;18.292;2023-04-24T15:12:57;13.10;99.90
37844;DHT22;63793;57.632;18.292;2023-04-24T15:15:24;12.30;99.90
37844;DHT22;63793;57.632;18.292;2023-04-24T15:17:51;11.90;99.90
37844;DHT22;63793;57.632;18.292;2023-04-24T15:20:18;11.70;99.90
37844;DHT22;63793;57.632;18.292;2023-04-24T15:22:45;11.30;99.90
37844;DHT22;63793;57.632;18.292;2023-04-24T15:25:11;11.00;99.90
37844;DHT22;63793;57.632;18.292;2023-04-24T15:27:43;10.80;99.90
37844;DHT22;63793;57.632;18.292;2023-04-24T15:30:10;10.40;99.90
37844;DHT22;63793;57.632;18.292;2023-04-24T15:32:38;10.30;99.90
37844;DHT22;63793;57.632;18.292;2023-04-24T15:35:05;10.20;99.90
37844;DHT22;63793;57.632;18.292;2023-04-24T15:37:36;10.00;99.90
37844;DHT22;63793;57.632;18.292;2023-04-24T15:40:04;10.00;99.90
37844;DHT22;63793;57.632;18.292;2023-04-24T15:42:33;9.90;99.90
37844;DHT22;63793;57.632;18.292;2023-04-24T15:45:00;9.60;99.90
37844;DHT22;63793;57.632;18.292;2023-04-24T15:47:27;9.50;99.90
37844;DHT22;63793;57.632;18.292;2023-04-24T15:49:54;9.40;99.90